Time,TemperatureF,DewpointF,PressureIn,WindDirection,WindDirectionDegrees,WindSpeedMPH,WindSpeedGustMPH,Humidity,HourlyPrecipIn,Conditions,Clouds,dailyrainin,SoftwareType,DateUTC
2013-01-14 00:03:00,-3.5,-15.9,-100.00,North,-999,-999.0,1.0,54,0.00,,,0.00,meteohub,2013-01-14 07:03:00,
2013-01-14 00:08:00,-3.5,-15.9,-100.00,NNE,22,0.0,0.0,54,0.00,,,0.00,meteohub,2013-01-14 07:08:00,
2013-01-14 00:13:00,-3.5,-15.9,-100.00,East,90,0.0,0.0,54,0.00,,,0.00,meteohub,2013-01-14 07:13:00,
2013-01-14 00:18:00,-2.9,-15.5,-100.00,ESE,112,2.0,2.0,54,0.00,,,0.00,meteohub,2013-01-14 07:18:00,
2013-01-14 00:23:00,-3.1,-15.5,-100.00,ESE,112,0.0,2.0,54,0.00,,,0.00,meteohub,2013-01-14 07:23:00,
2013-01-14 00:28:00,-3.5,-15.9,-100.00,ENE,67,0.0,2.0,54,0.00,,,0.00,meteohub,2013-01-14 07:28:00,
2013-01-14 00:33:00,-3.3,-15.7,-100.00,ENE,67,0.0,2.0,54,0.00,,,0.00,meteohub,2013-01-14 07:33:00,
2013-01-14 00:38:00,-3.1,-15.5,-100.00,East,90,1.0,2.0,54,0.00,,,0.00,meteohub,2013-01-14 07:38:00,
2013-01-14 00:44:00,-3.1,-15.5,-100.00,ESE,112,1.0,2.0,54,0.00,,,0.00,meteohub,2013-01-14 07:44:00,
2013-01-14 00:49:00,-3.1,-15.5,-100.00,ESE,112,1.0,2.0,54,0.00,,,0.00,meteohub,2013-01-14 07:49:00,
2013-01-14 00:54:00,-2.9,-15.5,-100.00,ESE,112,2.0,2.0,54,0.00,,,0.00,meteohub,2013-01-14 07:54:00,
2013-01-14 00:59:00,-3.1,-15.5,-100.00,NNE,22,0.0,2.0,54,0.00,,,0.00,meteohub,2013-01-14 07:59:00,
2013-01-14 01:04:00,-3.1,-15.5,-100.00,ESE,112,1.0,2.0,54,0.00,,,0.00,meteohub,2013-01-14 08:04:00,
2013-01-14 01:09:00,-3.1,-15.5,-100.00,ESE,112,1.0,2.0,54,0.00,,,0.00,meteohub,2013-01-14 08:09:00,
2013-01-14 01:14:00,-2.6,-15.2,-100.00,ESE,112,1.0,2.0,54,0.00,,,0.00,meteohub,2013-01-14 08:14:00,
2013-01-14 01:19:00,-2.6,-15.2,-100.00,ESE,112,1.0,2.0,54,0.00,,,0.00,meteohub,2013-01-14 08:19:00,
2013-01-14 01:25:00,-2.6,-15.2,-100.00,SSE,157,0.0,2.0,54,0.00,,,0.00,meteohub,2013-01-14 08:25:00,
2013-01-14 01:30:00,-2.9,-15.5,-100.00,ESE,112,1.0,2.0,54,0.00,,,0.00,meteohub,2013-01-14 08:30:00,
2013-01-14 01:35:00,-2.7,-15.3,-100.00,ESE,112,1.0,2.0,54,0.00,,,0.00,meteohub,2013-01-14 08:35:00,
2013-01-14 01:40:00,-2.7,-15.3,-100.00,ESE,112,0.0,2.0,54,0.00,,,0.00,meteohub,2013-01-14 08:40:00,
2013-01-14 01:45:00,-2.9,-15.5,-100.00,NNW,337,0.0,2.0,54,0.00,,,0.00,meteohub,2013-01-14 08:45:00,
2013-01-14 01:50:00,-3.1,-15.5,-100.00,NNE,22,0.0,2.0,54,0.00,,,0.00,meteohub,2013-01-14 08:50:00,
2013-01-14 01:55:00,-2.9,-15.5,-100.00,NNE,22,0.0,0.0,54,0.00,,,0.00,meteohub,2013-01-14 08:55:00,
2013-01-14 02:00:00,-2.6,-15.2,-100.00,East,90,0.0,1.0,54,0.00,,,0.00,meteohub,2013-01-14 09:00:00,
2013-01-14 02:05:00,-2.6,-15.2,-100.00,NNE,22,0.0,2.0,54,0.00,,,0.00,meteohub,2013-01-14 09:05:00,
2013-01-14 02:10:00,-2.4,-15.0,-100.00,East,90,0.0,2.0,54,0.00,,,0.00,meteohub,2013-01-14 09:10:00,
2013-01-14 02:15:00,-2.0,-14.6,-100.00,ENE,67,0.0,2.0,54,0.00,,,0.00,meteohub,2013-01-14 09:15:00,
2013-01-14 02:21:00,-1.8,-14.4,-100.00,ENE,67,0.0,2.0,54,0.00,,,0.00,meteohub,2013-01-14 09:21:00,
2013-01-14 02:26:00,-1.3,-13.9,-100.00,WNW,292,1.0,2.0,54,0.00,,,0.00,meteohub,2013-01-14 09:26:00,
2013-01-14 02:31:00,-0.9,-13.5,-100.00,NNW,337,0.0,2.0,54,0.00,,,0.00,meteohub,2013-01-14 09:31:00,
2013-01-14 02:36:00,-0.6,-13.2,-100.00,WSW,247,1.0,2.0,54,0.00,,,0.00,meteohub,2013-01-14 09:36:00,
2013-01-14 02:41:00,-0.6,-13.2,-100.00,NNW,337,0.0,2.0,54,0.00,,,0.00,meteohub,2013-01-14 09:41:00,
2013-01-14 02:46:00,-0.6,-13.2,-100.00,ENE,67,0.0,2.0,54,0.00,,,0.00,meteohub,2013-01-14 09:46:00,
2013-01-14 02:51:00,0.0,-12.8,-100.00,NE,45,2.0,2.0,54,0.00,,,0.00,meteohub,2013-01-14 09:51:00,
2013-01-14 02:57:00,0.0,-12.8,-100.00,South,180,2.0,3.0,54,0.00,,,0.00,meteohub,2013-01-14 09:57:00,
2013-01-14 03:02:00,-0.6,-13.2,-100.00,ESE,112,0.0,3.0,54,0.00,,,0.00,meteohub,2013-01-14 10:02:00,
2013-01-14 03:07:00,-0.6,-13.2,-100.00,NNE,22,2.0,3.0,54,0.00,,,0.00,meteohub,2013-01-14 10:07:00,
2013-01-14 03:12:00,-0.4,-13.0,-100.00,NNE,22,0.0,2.0,54,0.00,,,0.00,meteohub,2013-01-14 10:12:00,
2013-01-14 03:17:00,-0.2,-12.8,-100.00,WNW,292,0.0,2.0,54,0.00,,,0.00,meteohub,2013-01-14 10:17:00,
2013-01-14 03:22:00,0.0,-12.8,-100.00,WSW,247,0.0,2.0,54,0.00,,,0.00,meteohub,2013-01-14 10:22:00,
2013-01-14 03:27:00,0.1,-12.6,-100.00,WNW,292,0.0,1.0,54,0.00,,,0.00,meteohub,2013-01-14 10:27:00,
2013-01-14 03:32:00,0.3,-12.5,-100.00,WSW,247,0.0,1.0,54,0.00,,,0.00,meteohub,2013-01-14 10:32:00,
2013-01-14 03:37:00,0.5,-12.3,-100.00,WNW,292,1.0,1.0,54,0.00,,,0.00,meteohub,2013-01-14 10:37:00,
2013-01-14 03:42:00,0.7,-12.1,-100.00,NNW,337,0.0,2.0,54,0.00,,,0.00,meteohub,2013-01-14 10:42:00,
2013-01-14 03:47:00,0.7,-12.1,-100.00,NNW,337,0.0,2.0,54,0.00,,,0.00,meteohub,2013-01-14 10:47:00,
2013-01-14 03:52:00,0.9,-11.9,-100.00,ENE,67,2.0,2.0,54,0.00,,,0.00,meteohub,2013-01-14 10:52:00,
2013-01-14 03:57:00,1.2,-11.6,-100.00,SSE,157,2.0,2.0,54,0.00,,,0.00,meteohub,2013-01-14 10:57:00,
2013-01-14 04:02:00,1.6,-11.2,-100.00,East,90,0.0,2.0,54,0.00,,,0.00,meteohub,2013-01-14 11:02:00,
2013-01-14 04:07:00,1.6,-11.2,-100.00,WNW,292,0.0,2.0,54,0.00,,,0.00,meteohub,2013-01-14 11:07:00,
2013-01-14 04:12:00,1.6,-11.2,-100.00,WNW,292,0.0,2.0,54,0.00,,,0.00,meteohub,2013-01-14 11:12:00,
2013-01-14 04:17:00,1.8,-11.0,-100.00,SSE,157,1.0,2.0,54,0.00,,,0.00,meteohub,2013-01-14 11:17:00,
2013-01-14 04:22:00,1.9,-10.8,-100.00,SSE,157,2.0,2.0,54,0.00,,,0.00,meteohub,2013-01-14 11:22:00,
2013-01-14 04:27:00,2.1,-10.7,-100.00,SSE,157,2.0,2.0,54,0.00,,,0.00,meteohub,2013-01-14 11:27:00,
2013-01-14 04:32:00,2.3,-10.5,-100.00,SSE,157,2.0,2.0,54,0.00,,,0.00,meteohub,2013-01-14 11:32:00,
2013-01-14 04:37:00,2.5,-10.3,-100.00,SSE,157,1.0,2.0,54,0.00,,,0.00,meteohub,2013-01-14 11:37:00,
2013-01-14 04:42:00,2.5,-10.3,-100.00,SSW,202,0.0,2.0,54,0.00,,,0.00,meteohub,2013-01-14 11:42:00,
2013-01-14 04:47:00,2.7,-10.1,-100.00,SSE,157,1.0,2.0,54,0.00,,,0.00,meteohub,2013-01-14 11:47:00,
2013-01-14 04:52:00,2.7,-10.1,-100.00,SSW,202,0.0,2.0,54,0.00,,,0.00,meteohub,2013-01-14 11:52:00,
2013-01-14 04:57:00,2.7,-10.1,-100.00,WSW,247,0.0,2.0,54,0.00,,,0.00,meteohub,2013-01-14 11:57:00,
2013-01-14 05:02:00,2.7,-10.1,-100.00,South,180,0.0,2.0,54,0.00,,,0.00,meteohub,2013-01-14 12:02:00,
2013-01-14 05:07:00,2.7,-10.1,-100.00,SSE,157,0.0,2.0,54,0.00,,,0.00,meteohub,2013-01-14 12:07:00,
2013-01-14 05:12:00,2.7,-10.1,-100.00,SE,135,0.0,2.0,54,0.00,,,0.00,meteohub,2013-01-14 12:12:00,
2013-01-14 05:17:00,2.7,-10.1,-100.00,SSE,157,0.0,2.0,54,0.00,,,0.00,meteohub,2013-01-14 12:17:00,
2013-01-14 05:22:00,2.7,-10.1,-100.00,SSE,157,0.0,2.0,54,0.00,,,0.00,meteohub,2013-01-14 12:22:00,
2013-01-14 05:27:00,2.7,-10.1,-100.00,SE,135,0.0,0.0,54,0.00,,,0.00,meteohub,2013-01-14 12:27:00,
2013-01-14 05:32:00,2.5,-10.3,-100.00,North,-999,-999.0,0.0,54,0.00,,,0.00,meteohub,2013-01-14 12:32:00,
2013-01-14 05:37:00,2.5,-10.3,-100.00,SSE,157,0.0,0.0,54,0.00,,,0.00,meteohub,2013-01-14 12:37:00,
2013-01-14 05:42:00,2.5,-10.3,-100.00,SSW,202,0.0,0.0,54,0.00,,,0.00,meteohub,2013-01-14 12:42:00,
2013-01-14 05:47:00,2.3,-10.5,-100.00,SSW,202,0.0,0.0,54,0.00,,,0.00,meteohub,2013-01-14 12:47:00,
2013-01-14 05:52:00,2.1,-10.7,-100.00,SSW,202,0.0,0.0,54,0.00,,,0.00,meteohub,2013-01-14 12:52:00,
2013-01-14 05:57:00,1.9,-10.8,-100.00,SSE,157,0.0,0.0,54,0.00,,,0.00,meteohub,2013-01-14 12:57:00,
2013-01-14 06:02:00,1.9,-10.8,-100.00,SSE,157,0.0,0.0,54,0.00,,,0.00,meteohub,2013-01-14 13:02:00,
2013-01-14 06:07:00,1.9,-10.8,-100.00,ESE,112,0.0,1.0,54,0.00,,,0.00,meteohub,2013-01-14 13:07:00,
2013-01-14 06:12:00,1.8,-11.0,-100.00,ESE,112,0.0,1.0,54,0.00,,,0.00,meteohub,2013-01-14 13:12:00,
2013-01-14 06:17:00,1.4,-11.4,-100.00,ESE,112,0.0,0.0,54,0.00,,,0.00,meteohub,2013-01-14 13:17:00,
2013-01-14 06:22:00,1.2,-11.6,-100.00,ESE,112,0.0,0.0,54,0.00,,,0.00,meteohub,2013-01-14 13:22:00,
2013-01-14 06:27:00,1.0,-11.7,-100.00,NNE,22,0.0,0.0,54,0.00,,,0.00,meteohub,2013-01-14 13:27:00,
2013-01-14 06:32:00,1.2,-11.6,-100.00,NNE,22,0.0,0.0,54,0.00,,,0.00,meteohub,2013-01-14 13:32:00,
2013-01-14 06:37:00,1.2,-11.6,-100.00,ENE,67,0.0,0.0,54,0.00,,,0.00,meteohub,2013-01-14 13:37:00,
2013-01-14 06:42:00,1.2,-11.6,-100.00,ENE,67,0.0,0.0,54,0.00,,,0.00,meteohub,2013-01-14 13:42:00,
2013-01-14 06:47:00,1.2,-11.6,-100.00,ENE,67,0.0,0.0,54,0.00,,,0.00,meteohub,2013-01-14 13:47:00,
2013-01-14 06:52:00,1.2,-11.6,-100.00,ENE,67,0.0,0.0,54,0.00,,,0.00,meteohub,2013-01-14 13:52:00,
2013-01-14 06:57:00,0.9,-11.9,-100.00,ENE,67,0.0,0.0,54,0.00,,,0.00,meteohub,2013-01-14 13:57:00,
2013-01-14 07:02:00,0.5,-12.3,-100.00,ENE,67,0.0,0.0,54,0.00,,,0.00,meteohub,2013-01-14 14:02:00,
2013-01-14 07:07:00,0.1,-12.6,-100.00,ENE,67,0.0,0.0,54,0.00,,,0.00,meteohub,2013-01-14 14:07:00,
2013-01-14 07:12:00,-0.2,-12.8,-100.00,ENE,67,0.0,0.0,54,0.00,,,0.00,meteohub,2013-01-14 14:12:00,
2013-01-14 07:17:00,-0.6,-13.2,-100.00,ENE,67,0.0,0.0,54,0.00,,,0.00,meteohub,2013-01-14 14:17:00,
2013-01-14 07:22:00,-0.6,-13.2,-100.00,ENE,67,0.0,0.0,54,0.00,,,0.00,meteohub,2013-01-14 14:22:00,
2013-01-14 07:27:00,-0.8,-13.4,-100.00,ENE,67,0.0,0.0,54,0.00,,,0.00,meteohub,2013-01-14 14:27:00,
2013-01-14 07:32:00,-0.6,-13.2,-100.00,ENE,67,0.0,0.0,54,0.00,,,0.00,meteohub,2013-01-14 14:32:00,
2013-01-14 07:37:00,-0.6,-13.2,-100.00,ENE,67,0.0,0.0,54,0.00,,,0.00,meteohub,2013-01-14 14:37:00,
2013-01-14 07:42:00,0.0,-12.8,-100.00,North,-999,-999.0,0.0,54,0.00,,,0.00,meteohub,2013-01-14 14:42:00,
2013-01-14 07:47:00,0.3,-12.5,-100.00,ENE,67,0.0,0.0,54,0.00,,,0.00,meteohub,2013-01-14 14:47:00,
2013-01-14 07:52:00,0.7,-12.1,-100.00,ENE,67,0.0,0.0,54,0.00,,,0.00,meteohub,2013-01-14 14:52:00,
2013-01-14 07:57:00,1.0,-11.7,-100.00,North,-999,-999.0,0.0,54,0.00,,,0.00,meteohub,2013-01-14 14:57:00,
2013-01-14 08:02:00,1.2,-11.6,-100.00,ENE,67,0.0,0.0,54,0.00,,,0.00,meteohub,2013-01-14 15:02:00,
2013-01-14 08:07:00,1.9,-10.8,-100.00,ENE,67,0.0,0.0,54,0.00,,,0.00,meteohub,2013-01-14 15:07:00,
2013-01-14 08:12:00,2.5,-10.3,-100.00,SSE,157,0.0,0.0,54,0.00,,,0.00,meteohub,2013-01-14 15:12:00,
2013-01-14 08:17:00,2.8,-10.1,-100.00,SSE,157,0.0,1.0,54,0.00,,,0.00,meteohub,2013-01-14 15:17:00,
2013-01-14 08:22:00,3.7,-9.2,-100.00,ESE,112,0.0,1.0,54,0.00,,,0.00,meteohub,2013-01-14 15:22:00,
2013-01-14 08:27:00,4.5,-8.5,-100.00,ESE,112,0.0,1.0,54,0.00,,,0.00,meteohub,2013-01-14 15:27:00,
2013-01-14 08:32:00,5.2,-7.8,-100.00,ESE,112,0.0,1.0,54,0.00,,,0.00,meteohub,2013-01-14 15:32:00,
2013-01-14 08:38:00,5.5,-7.4,-100.00,ESE,112,0.0,1.0,54,0.00,,,0.00,meteohub,2013-01-14 15:38:00,
2013-01-14 08:43:00,6.3,-6.9,-100.00,SSE,157,2.0,0.0,54,0.00,,,0.00,meteohub,2013-01-14 15:43:00,
2013-01-14 08:48:00,6.4,-6.7,-100.00,South,180,1.0,2.0,54,0.00,,,0.00,meteohub,2013-01-14 15:48:00,
2013-01-14 08:53:00,7.3,-5.8,-100.00,South,180,1.0,2.0,54,0.00,,,0.00,meteohub,2013-01-14 15:53:00,
2013-01-14 08:58:00,7.5,-5.6,-100.00,SSW,202,1.0,2.0,54,0.00,,,0.00,meteohub,2013-01-14 15:58:00,
2013-01-14 09:03:00,8.2,-4.9,-100.00,SSE,157,1.0,2.0,54,0.00,,,0.00,meteohub,2013-01-14 16:03:00,
2013-01-14 09:08:00,8.1,-5.1,-100.00,South,180,2.0,2.0,54,0.00,,,0.00,meteohub,2013-01-14 16:08:00,
2013-01-14 09:13:00,9.5,-3.8,-100.00,SSE,157,1.0,2.0,54,0.00,,,0.00,meteohub,2013-01-14 16:13:00,
2013-01-14 09:18:00,10.6,-2.7,-100.00,SSW,202,0.0,2.0,54,0.00,,,0.00,meteohub,2013-01-14 16:18:00,
2013-01-14 09:23:00,12.0,-1.5,-100.00,SSE,157,2.0,2.0,54,0.00,,,0.00,meteohub,2013-01-14 16:23:00,
2013-01-14 09:28:00,13.8,0.3,-100.00,SSW,202,2.0,2.0,54,0.00,,,0.00,meteohub,2013-01-14 16:28:00,
2013-01-14 09:33:00,15.8,2.8,-100.00,SSE,157,1.0,2.0,56,0.00,,,0.00,meteohub,2013-01-14 16:33:00,
2013-01-14 09:38:00,17.6,4.1,-100.00,SSW,202,2.0,3.0,55,0.00,,,0.00,meteohub,2013-01-14 16:38:00,
2013-01-14 09:43:00,17.8,3.6,-100.00,SSW,202,0.0,3.0,53,0.00,,,0.00,meteohub,2013-01-14 16:43:00,
2013-01-14 09:48:00,17.4,3.2,-100.00,SSE,157,4.0,4.0,53,0.00,,,0.00,meteohub,2013-01-14 16:48:00,
2013-01-14 09:54:00,18.5,3.4,-100.00,South,180,1.0,4.0,51,0.00,,,0.00,meteohub,2013-01-14 16:54:00,
2013-01-14 09:59:00,18.3,2.8,-100.00,SSE,157,2.0,4.0,50,0.00,,,0.00,meteohub,2013-01-14 16:59:00,
2013-01-14 10:04:00,19.0,3.0,-100.00,SSE,157,3.0,5.0,49,0.00,,,0.00,meteohub,2013-01-14 17:04:00,
2013-01-14 10:09:00,21.0,4.8,-100.00,SSW,202,1.0,5.0,49,0.00,,,0.00,meteohub,2013-01-14 17:09:00,
2013-01-14 10:14:00,20.3,3.7,-100.00,SSW,202,0.0,5.0,48,0.00,,,0.00,meteohub,2013-01-14 17:14:00,
2013-01-14 10:19:00,21.0,4.5,-100.00,SSE,157,3.0,4.0,48,0.00,,,0.00,meteohub,2013-01-14 17:19:00,
2013-01-14 10:24:00,22.5,4.3,-100.00,SSE,157,1.0,4.0,45,0.00,,,0.00,meteohub,2013-01-14 17:24:00,
2013-01-14 10:29:00,21.0,3.0,-100.00,SSW,202,4.0,4.0,45,0.00,,,0.00,meteohub,2013-01-14 17:29:00,
2013-01-14 10:34:00,21.9,4.3,-100.00,SSW,202,0.0,4.0,46,0.00,,,0.00,meteohub,2013-01-14 17:34:00,
2013-01-14 10:39:00,22.1,3.9,-100.00,SSE,157,2.0,4.0,45,0.00,,,0.00,meteohub,2013-01-14 17:39:00,
2013-01-14 10:44:00,21.6,3.0,-100.00,SSE,157,4.0,4.0,44,0.00,,,0.00,meteohub,2013-01-14 17:44:00,
2013-01-14 10:49:00,20.8,2.3,-100.00,SSE,157,4.0,6.0,44,0.00,,,0.00,meteohub,2013-01-14 17:49:00,
2013-01-14 10:54:00,20.5,1.9,-100.00,SSE,157,6.0,7.0,44,0.00,,,0.00,meteohub,2013-01-14 17:54:00,
2013-01-14 11:00:00,20.3,2.3,-100.00,SSW,202,5.0,7.0,45,0.00,,,0.00,meteohub,2013-01-14 18:00:00,
2013-01-14 11:05:00,19.9,1.9,-100.00,SSE,157,6.0,8.0,45,0.00,,,0.00,meteohub,2013-01-14 18:05:00,
2013-01-14 11:10:00,20.1,2.1,-100.00,SSE,157,6.0,8.0,45,0.00,,,0.00,meteohub,2013-01-14 18:10:00,
2013-01-14 11:15:00,20.5,2.5,-100.00,SSW,202,3.0,8.0,45,0.00,,,0.00,meteohub,2013-01-14 18:15:00,
2013-01-14 11:20:00,20.3,2.3,-100.00,SSW,202,2.0,7.0,45,0.00,,,0.00,meteohub,2013-01-14 18:20:00,
2013-01-14 11:25:00,21.9,3.4,-100.00,SSE,157,3.0,6.0,44,0.00,,,0.00,meteohub,2013-01-14 18:25:00,
2013-01-14 11:30:00,21.4,2.8,-100.00,SE,135,4.0,4.0,44,0.00,,,0.00,meteohub,2013-01-14 18:30:00,
2013-01-14 11:35:00,21.7,3.2,-100.00,SSE,157,4.0,10.0,44,0.00,,,0.00,meteohub,2013-01-14 18:35:00,
2013-01-14 11:40:00,21.4,2.8,-100.00,SSE,157,5.0,10.0,44,0.00,,,0.00,meteohub,2013-01-14 18:40:00,
2013-01-14 11:45:00,22.1,3.0,-100.00,SSE,157,3.0,6.0,43,0.00,,,0.00,meteohub,2013-01-14 18:45:00,
2013-01-14 11:50:00,23.2,4.5,-100.00,SSE,157,4.0,6.0,44,0.00,,,0.00,meteohub,2013-01-14 18:50:00,
2013-01-14 11:55:00,23.2,3.9,-100.00,SSW,202,2.0,6.0,43,0.00,,,0.00,meteohub,2013-01-14 18:55:00,
2013-01-14 12:01:00,24.4,5.2,-100.00,SSE,157,4.0,6.0,43,0.00,,,0.00,meteohub,2013-01-14 19:01:00,
2013-01-14 12:06:00,24.4,5.2,-100.00,ENE,67,1.0,6.0,43,0.00,,,0.00,meteohub,2013-01-14 19:06:00,
2013-01-14 12:11:00,24.6,4.8,-100.00,SSE,157,3.0,4.0,42,0.00,,,0.00,meteohub,2013-01-14 19:11:00,
2013-01-14 12:16:00,26.1,6.1,-100.00,WNW,292,0.0,4.0,42,0.00,,,0.00,meteohub,2013-01-14 19:16:00,
2013-01-14 12:21:00,25.5,5.5,-100.00,ESE,112,5.0,5.0,42,0.00,,,0.00,meteohub,2013-01-14 19:21:00,
2013-01-14 12:26:00,24.8,5.0,-100.00,ESE,112,1.0,5.0,42,0.00,,,0.00,meteohub,2013-01-14 19:26:00,
2013-01-14 12:31:00,24.8,5.0,-100.00,ENE,67,2.0,5.0,42,0.00,,,0.00,meteohub,2013-01-14 19:31:00,
2013-01-14 12:36:00,25.9,5.4,-100.00,SSE,157,4.0,6.0,41,0.00,,,0.00,meteohub,2013-01-14 19:36:00,
2013-01-14 12:41:00,25.3,5.0,-100.00,SSE,157,3.0,6.0,41,0.00,,,0.00,meteohub,2013-01-14 19:41:00,
2013-01-14 12:46:00,21.6,1.9,-100.00,North,-999,-999.0,6.0,42,0.00,,,0.00,meteohub,2013-01-14 19:46:00,
2013-01-14 12:51:00,22.6,2.5,-100.00,SSE,157,4.0,6.0,41,0.00,,,0.00,meteohub,2013-01-14 19:51:00,
2013-01-14 12:57:00,23.5,3.4,-100.00,SSE,157,4.0,4.0,41,0.00,,,0.00,meteohub,2013-01-14 19:57:00,
2013-01-14 13:02:00,24.6,4.8,-100.00,SSE,157,5.0,5.0,42,0.00,,,0.00,meteohub,2013-01-14 20:02:00,
2013-01-14 13:07:00,24.4,4.6,-100.00,SSE,157,1.0,6.0,42,0.00,,,0.00,meteohub,2013-01-14 20:07:00,
2013-01-14 13:12:00,23.2,3.6,-100.00,ESE,112,6.0,6.0,42,0.00,,,0.00,meteohub,2013-01-14 20:12:00,
2013-01-14 13:17:00,22.5,2.8,-100.00,WSW,247,6.0,6.0,42,0.00,,,0.00,meteohub,2013-01-14 20:17:00,
2013-01-14 13:22:00,23.7,3.9,-100.00,ESE,112,4.0,6.0,42,0.00,,,0.00,meteohub,2013-01-14 20:22:00,
2013-01-14 13:27:00,24.4,4.6,-100.00,NNE,22,4.0,6.0,42,0.00,,,0.00,meteohub,2013-01-14 20:27:00,
2013-01-14 13:32:00,24.4,4.6,-100.00,SSE,157,3.0,6.0,42,0.00,,,0.00,meteohub,2013-01-14 20:32:00,
2013-01-14 13:37:00,23.0,3.4,-100.00,ESE,112,4.0,6.0,42,0.00,,,0.00,meteohub,2013-01-14 20:37:00,
2013-01-14 13:42:00,24.8,5.0,-100.00,South,180,0.0,6.0,42,0.00,,,0.00,meteohub,2013-01-14 20:42:00,
2013-01-14 13:47:00,25.3,5.0,-100.00,SE,135,3.0,6.0,41,0.00,,,0.00,meteohub,2013-01-14 20:47:00,
2013-01-14 13:52:00,25.5,5.0,-100.00,NNW,337,0.0,6.0,41,0.00,,,0.00,meteohub,2013-01-14 20:52:00,
2013-01-14 13:57:00,23.4,3.6,-100.00,SSE,157,3.0,6.0,42,0.00,,,0.00,meteohub,2013-01-14 20:57:00,
2013-01-14 14:02:00,25.3,5.0,-100.00,ESE,112,2.0,6.0,41,0.00,,,0.00,meteohub,2013-01-14 21:02:00,
2013-01-14 14:07:00,24.6,4.3,-100.00,SSE,157,4.0,6.0,41,0.00,,,0.00,meteohub,2013-01-14 21:07:00,
2013-01-14 14:12:00,25.3,5.0,-100.00,SSE,157,6.0,9.0,41,0.00,,,0.00,meteohub,2013-01-14 21:12:00,
2013-01-14 14:17:00,24.3,3.9,-100.00,SSE,157,6.0,9.0,41,0.00,,,0.00,meteohub,2013-01-14 21:17:00,
2013-01-14 14:22:00,24.4,4.6,-100.00,SSW,202,1.0,9.0,42,0.00,,,0.00,meteohub,2013-01-14 21:22:00,
2013-01-14 14:27:00,24.6,4.8,-100.00,SSE,157,2.0,7.0,42,0.00,,,0.00,meteohub,2013-01-14 21:27:00,
2013-01-14 14:32:00,21.2,1.8,-100.00,SSE,157,5.0,7.0,42,0.00,,,0.00,meteohub,2013-01-14 21:32:00,
2013-01-14 14:37:00,23.0,3.4,-100.00,SE,135,4.0,6.0,42,0.00,,,0.00,meteohub,2013-01-14 21:37:00,
2013-01-14 14:43:00,22.8,3.2,-100.00,SSW,202,3.0,6.0,42,0.00,,,0.00,meteohub,2013-01-14 21:43:00,
2013-01-14 14:48:00,22.3,3.2,-100.00,SSW,202,0.0,5.0,43,0.00,,,0.00,meteohub,2013-01-14 21:48:00,
2013-01-14 14:53:00,22.5,2.8,-100.00,SSW,202,3.0,8.0,42,0.00,,,0.00,meteohub,2013-01-14 21:53:00,
2013-01-14 14:58:00,22.3,3.2,-100.00,SSE,157,4.0,8.0,43,0.00,,,0.00,meteohub,2013-01-14 21:58:00,
2013-01-14 15:03:00,22.1,3.0,-100.00,SSE,157,3.0,8.0,43,0.00,,,0.00,meteohub,2013-01-14 22:03:00,
2013-01-14 15:08:00,20.7,1.8,-100.00,SSW,202,3.0,8.0,43,0.00,,,0.00,meteohub,2013-01-14 22:08:00,
2013-01-14 15:13:00,20.7,1.8,-100.00,SSE,157,4.0,8.0,43,0.00,,,0.00,meteohub,2013-01-14 22:13:00,
2013-01-14 15:18:00,20.3,1.9,-100.00,SSE,157,4.0,8.0,44,0.00,,,0.00,meteohub,2013-01-14 22:18:00,
2013-01-14 15:23:00,19.8,1.4,-100.00,SSW,202,6.0,8.0,44,0.00,,,0.00,meteohub,2013-01-14 22:23:00,
2013-01-14 15:28:00,19.6,1.2,-100.00,SSW,202,3.0,6.0,44,0.00,,,0.00,meteohub,2013-01-14 22:28:00,
2013-01-14 15:33:00,19.8,1.4,-100.00,SSE,157,3.0,6.0,44,0.00,,,0.00,meteohub,2013-01-14 22:33:00,
2013-01-14 15:38:00,19.9,1.6,-100.00,SSW,202,3.0,6.0,44,0.00,,,0.00,meteohub,2013-01-14 22:38:00,
2013-01-14 15:43:00,19.8,1.4,-100.00,SSW,202,3.0,6.0,44,0.00,,,0.00,meteohub,2013-01-14 22:43:00,
2013-01-14 15:48:00,19.6,1.2,-100.00,SSE,157,4.0,5.0,44,0.00,,,0.00,meteohub,2013-01-14 22:48:00,
2013-01-14 15:53:00,19.9,1.6,-100.00,SSE,157,3.0,5.0,44,0.00,,,0.00,meteohub,2013-01-14 22:53:00,
2013-01-14 15:58:00,19.6,0.7,-100.00,North,-999,-999.0,4.0,43,0.00,,,0.00,meteohub,2013-01-14 22:58:00,
2013-01-14 16:04:00,18.5,0.1,-100.00,North,-999,-999.0,4.0,44,0.00,,,0.00,meteohub,2013-01-14 23:04:00,
2013-01-14 16:09:00,17.8,-0.4,-100.00,North,-999,-999.0,-999.0,44,0.00,,,0.00,meteohub,2013-01-14 23:09:00,
2013-01-14 16:14:00,17.2,-0.4,-100.00,North,-999,-999.0,-999.0,45,0.00,,,0.00,meteohub,2013-01-14 23:14:00,
2013-01-14 16:19:00,15.8,-1.8,-100.00,North,-999,-999.0,-999.0,45,0.00,,,0.00,meteohub,2013-01-14 23:19:00,
2013-01-14 16:24:00,12.7,-4.5,-100.00,North,-999,-999.0,-999.0,45,0.00,,,0.00,meteohub,2013-01-14 23:24:00,
2013-01-14 16:29:00,11.7,-5.6,-100.00,North,-999,-999.0,-999.0,45,0.00,,,0.00,meteohub,2013-01-14 23:29:00,
2013-01-14 16:34:00,10.9,-6.2,-100.00,North,-999,-999.0,-999.0,45,0.00,,,0.00,meteohub,2013-01-14 23:34:00,
2013-01-14 16:39:00,10.0,-7.1,-100.00,North,-999,-999.0,-999.0,45,0.00,,,0.00,meteohub,2013-01-14 23:39:00,
2013-01-14 16:44:00,9.3,-7.8,-100.00,North,-999,-999.0,-999.0,45,0.00,,,0.00,meteohub,2013-01-14 23:44:00,
2013-01-14 16:50:00,8.6,-8.3,-100.00,North,-999,-999.0,-999.0,45,0.00,,,0.00,meteohub,2013-01-14 23:50:00,
2013-01-14 16:55:00,8.1,-8.9,-100.00,North,-999,-999.0,-999.0,45,0.00,,,0.00,meteohub,2013-01-14 23:55:00,
2013-01-14 17:00:00,7.9,-9.0,-100.00,North,-999,-999.0,-999.0,45,0.00,,,0.00,meteohub,2013-01-15 00:00:00,
2013-01-14 17:05:00,7.9,-9.0,-100.00,North,-999,-999.0,-999.0,45,0.00,,,0.00,meteohub,2013-01-15 00:05:00,
2013-01-14 17:10:00,7.7,-9.2,-100.00,North,-999,-999.0,-999.0,45,0.00,,,0.00,meteohub,2013-01-15 00:10:00,
2013-01-14 17:15:00,6.6,-10.3,-100.00,North,-999,-999.0,-999.0,45,0.00,,,0.00,meteohub,2013-01-15 00:15:00,
2013-01-14 17:20:00,5.9,-10.8,-100.00,North,-999,-999.0,-999.0,45,0.00,,,0.00,meteohub,2013-01-15 00:20:00,
2013-01-14 17:25:00,5.7,-11.0,-100.00,North,-999,-999.0,-999.0,45,0.00,,,0.00,meteohub,2013-01-15 00:25:00,
2013-01-14 17:30:00,5.5,-11.2,-100.00,North,-999,-999.0,-999.0,45,0.00,,,0.00,meteohub,2013-01-15 00:30:00,
2013-01-14 17:36:00,5.0,-11.7,-100.00,North,-999,-999.0,-999.0,45,0.00,,,0.00,meteohub,2013-01-15 00:36:00,
2013-01-14 17:41:00,4.1,-12.5,-100.00,North,-999,-999.0,-999.0,45,0.00,,,0.00,meteohub,2013-01-15 00:41:00,
2013-01-14 17:46:00,4.5,-12.3,-100.00,North,-999,-999.0,-999.0,45,0.00,,,0.00,meteohub,2013-01-15 00:46:00,
2013-01-14 17:51:00,3.7,-12.8,-100.00,North,-999,-999.0,-999.0,45,0.00,,,0.00,meteohub,2013-01-15 00:51:00,
2013-01-14 17:56:00,3.2,-13.4,-100.00,North,-999,-999.0,-999.0,45,0.00,,,0.00,meteohub,2013-01-15 00:56:00,
2013-01-14 18:01:00,3.7,-12.8,-100.00,North,-999,-999.0,-999.0,45,0.00,,,0.00,meteohub,2013-01-15 01:01:00,
2013-01-14 18:06:00,4.1,-12.5,-100.00,North,-999,-999.0,-999.0,45,0.00,,,0.00,meteohub,2013-01-15 01:06:00,
2013-01-14 18:11:00,4.3,-12.3,-100.00,North,-999,-999.0,-999.0,45,0.00,,,0.00,meteohub,2013-01-15 01:11:00,
2013-01-14 18:16:00,4.1,-12.5,-100.00,North,-999,-999.0,-999.0,45,0.00,,,0.00,meteohub,2013-01-15 01:16:00,
2013-01-14 18:21:00,4.3,-12.3,-100.00,North,-999,-999.0,-999.0,45,0.00,,,0.00,meteohub,2013-01-15 01:21:00,
2013-01-14 18:26:00,4.1,-12.5,-100.00,North,-999,-999.0,-999.0,45,0.00,,,0.00,meteohub,2013-01-15 01:26:00,
2013-01-14 18:31:00,4.1,-12.5,-100.00,North,-999,-999.0,-999.0,45,0.00,,,0.00,meteohub,2013-01-15 01:31:00,
2013-01-14 18:36:00,3.2,-13.4,-100.00,North,-999,-999.0,-999.0,45,0.00,,,0.00,meteohub,2013-01-15 01:36:00,
2013-01-14 18:41:00,2.7,-13.9,-100.00,North,-999,-999.0,-999.0,45,0.00,,,0.00,meteohub,2013-01-15 01:41:00,
2013-01-14 18:46:00,2.5,-14.1,-100.00,North,-999,-999.0,-999.0,45,0.00,,,0.00,meteohub,2013-01-15 01:46:00,
2013-01-14 18:52:00,2.7,-13.9,-100.00,North,-999,-999.0,-999.0,45,0.00,,,0.00,meteohub,2013-01-15 01:52:00,
2013-01-14 18:57:00,2.7,-13.9,-100.00,North,-999,-999.0,-999.0,45,0.00,,,0.00,meteohub,2013-01-15 01:57:00,
2013-01-14 19:02:00,2.8,-13.7,-100.00,North,-999,-999.0,-999.0,45,0.00,,,0.00,meteohub,2013-01-15 02:02:00,
2013-01-14 19:07:00,3.0,-13.5,-100.00,North,-999,-999.0,-999.0,45,0.00,,,0.00,meteohub,2013-01-15 02:07:00,
2013-01-14 19:12:00,3.0,-13.5,-100.00,North,-999,-999.0,-999.0,45,0.00,,,0.00,meteohub,2013-01-15 02:12:00,
2013-01-14 19:17:00,3.2,-13.4,-100.00,North,-999,-999.0,-999.0,45,0.00,,,0.00,meteohub,2013-01-15 02:17:00,
2013-01-14 19:22:00,3.2,-13.4,-100.00,North,-999,-999.0,-999.0,45,0.00,,,0.00,meteohub,2013-01-15 02:22:00,
2013-01-14 19:27:00,3.4,-13.2,-100.00,ESE,112,3.0,-999.0,45,0.00,,,0.00,meteohub,2013-01-15 02:27:00,
2013-01-14 19:32:00,3.2,-13.4,-100.00,North,-999,-999.0,3.0,45,0.00,,,0.00,meteohub,2013-01-15 02:32:00,
2013-01-14 19:37:00,3.2,-13.4,-100.00,North,-999,-999.0,3.0,45,0.00,,,0.00,meteohub,2013-01-15 02:37:00,
2013-01-14 19:42:00,3.4,-13.2,-100.00,North,-999,-999.0,3.0,45,0.00,,,0.00,meteohub,2013-01-15 02:42:00,
2013-01-14 19:47:00,3.6,-13.0,-100.00,North,-999,-999.0,-999.0,45,0.00,,,0.00,meteohub,2013-01-15 02:47:00,
2013-01-14 19:52:00,3.2,-13.4,-100.00,North,-999,-999.0,-999.0,45,0.00,,,0.00,meteohub,2013-01-15 02:52:00,
2013-01-14 19:57:00,3.0,-13.5,-100.00,North,-999,-999.0,-999.0,45,0.00,,,0.00,meteohub,2013-01-15 02:57:00,
2013-01-14 20:02:00,3.2,-13.4,-100.00,North,-999,-999.0,-999.0,45,0.00,,,0.00,meteohub,2013-01-15 03:02:00,
2013-01-14 20:07:00,3.2,-13.4,-100.00,North,-999,-999.0,-999.0,45,0.00,,,0.00,meteohub,2013-01-15 03:07:00,
2013-01-14 20:12:00,3.0,-13.5,-100.00,North,-999,-999.0,-999.0,45,0.00,,,0.00,meteohub,2013-01-15 03:12:00,
2013-01-14 20:17:00,2.5,-14.1,-100.00,North,-999,-999.0,-999.0,45,0.00,,,0.00,meteohub,2013-01-15 03:17:00,
2013-01-14 20:22:00,2.3,-14.3,-100.00,North,-999,-999.0,-999.0,45,0.00,,,0.00,meteohub,2013-01-15 03:22:00,
2013-01-14 20:27:00,2.5,-14.1,-100.00,North,-999,-999.0,-999.0,45,0.00,,,0.00,meteohub,2013-01-15 03:27:00,
2013-01-14 20:32:00,2.7,-13.9,-100.00,North,-999,-999.0,-999.0,45,0.00,,,0.00,meteohub,2013-01-15 03:32:00,
2013-01-14 20:37:00,2.3,-14.3,-100.00,North,-999,-999.0,-999.0,45,0.00,,,0.00,meteohub,2013-01-15 03:37:00,
2013-01-14 20:43:00,1.9,-14.4,-100.00,North,-999,-999.0,-999.0,45,0.00,,,0.00,meteohub,2013-01-15 03:43:00,
2013-01-14 20:48:00,1.6,-14.8,-100.00,North,-999,-999.0,-999.0,45,0.00,,,0.00,meteohub,2013-01-15 03:48:00,
2013-01-14 20:53:00,1.0,-15.3,-100.00,North,-999,-999.0,-999.0,45,0.00,,,0.00,meteohub,2013-01-15 03:53:00,
2013-01-14 20:58:00,0.7,-15.7,-100.00,North,-999,-999.0,-999.0,45,0.00,,,0.00,meteohub,2013-01-15 03:58:00,
2013-01-14 21:03:00,0.3,-16.1,-100.00,North,-999,-999.0,-999.0,45,0.00,,,0.00,meteohub,2013-01-15 04:03:00,
2013-01-14 21:08:00,0.3,-16.1,-100.00,North,-999,-999.0,-999.0,45,0.00,,,0.00,meteohub,2013-01-15 04:08:00,
2013-01-14 21:13:00,0.9,-15.5,-100.00,North,-999,-999.0,-999.0,45,0.00,,,0.00,meteohub,2013-01-15 04:13:00,
2013-01-14 21:18:00,1.4,-15.0,-100.00,East,90,2.0,-999.0,45,0.00,,,0.00,meteohub,2013-01-15 04:18:00,
2013-01-14 21:23:00,1.6,-14.8,-100.00,North,-999,-999.0,2.0,45,0.00,,,0.00,meteohub,2013-01-15 04:23:00,
2013-01-14 21:28:00,1.6,-14.8,-100.00,North,-999,-999.0,2.0,45,0.00,,,0.00,meteohub,2013-01-15 04:28:00,
2013-01-14 21:34:00,1.6,-14.8,-100.00,North,-999,-999.0,2.0,45,0.00,,,0.00,meteohub,2013-01-15 04:34:00,
2013-01-14 21:39:00,1.4,-15.0,-100.00,North,-999,-999.0,-999.0,45,0.00,,,0.00,meteohub,2013-01-15 04:39:00,
2013-01-14 21:44:00,1.0,-15.3,-100.00,North,-999,-999.0,-999.0,45,0.00,,,0.00,meteohub,2013-01-15 04:44:00,
2013-01-14 21:49:00,0.3,-16.1,-100.00,North,-999,-999.0,-999.0,45,0.00,,,0.00,meteohub,2013-01-15 04:49:00,
2013-01-14 21:54:00,0.0,-16.4,-100.00,North,-999,-999.0,-999.0,45,0.00,,,0.00,meteohub,2013-01-15 04:54:00,
2013-01-14 21:59:00,0.7,-15.7,-100.00,North,-999,-999.0,-999.0,45,0.00,,,0.00,meteohub,2013-01-15 04:59:00,
2013-01-14 22:00:00,0.7,-15.7,-100.00,North,-999,-999.0,-999.0,45,0.00,,,0.00,meteohub,2013-01-15 05:00:00,
2013-01-14 22:01:00,0.7,-15.7,-100.00,North,-999,-999.0,-999.0,45,0.00,,,0.00,meteohub,2013-01-15 05:01:00,
2013-01-14 22:03:00,0.7,-15.7,-100.00,North,-999,-999.0,-999.0,45,0.00,,,0.00,meteohub,2013-01-15 05:03:00,
2013-01-14 22:08:00,0.7,-15.7,-100.00,North,-999,-999.0,-999.0,45,0.00,,,0.00,meteohub,2013-01-15 05:08:00,
2013-01-14 22:13:00,0.3,-16.1,-100.00,North,-999,-999.0,-999.0,45,0.00,,,0.00,meteohub,2013-01-15 05:13:00,
2013-01-14 22:18:00,0.7,-15.7,-100.00,North,-999,-999.0,-999.0,45,0.00,,,0.00,meteohub,2013-01-15 05:18:00,
2013-01-14 22:24:00,0.3,-16.1,-100.00,North,-999,-999.0,-999.0,45,0.00,,,0.00,meteohub,2013-01-15 05:24:00,
2013-01-14 22:29:00,0.5,-15.9,-100.00,ESE,112,2.0,-999.0,45,0.00,,,0.00,meteohub,2013-01-15 05:29:00,
2013-01-14 22:34:00,0.7,-15.7,-100.00,East,90,3.0,3.0,45,0.00,,,0.00,meteohub,2013-01-15 05:34:00,
2013-01-14 22:39:00,0.5,-15.9,-100.00,SSW,202,2.0,2.0,45,0.00,,,0.00,meteohub,2013-01-15 05:39:00,
2013-01-14 22:44:00,-0.2,-16.4,-100.00,ESE,112,0.0,3.0,45,0.00,,,0.00,meteohub,2013-01-15 05:44:00,
2013-01-14 22:49:00,-0.9,-17.1,-100.00,NNE,22,0.0,3.0,45,0.00,,,0.00,meteohub,2013-01-15 05:49:00,
2013-01-14 22:54:00,-1.3,-17.5,-100.00,NE,45,0.0,2.0,45,0.00,,,0.00,meteohub,2013-01-15 05:54:00,
2013-01-14 22:59:00,-1.3,-17.5,-100.00,NNE,22,1.0,1.0,45,0.00,,,0.00,meteohub,2013-01-15 05:59:00,
2013-01-14 23:04:00,-0.9,-17.1,-100.00,NE,45,1.0,2.0,45,0.00,,,0.00,meteohub,2013-01-15 06:04:00,
2013-01-14 23:09:00,-0.9,-17.1,-100.00,NNW,337,2.0,2.0,45,0.00,,,0.00,meteohub,2013-01-15 06:09:00,
2013-01-14 23:14:00,-1.1,-17.3,-100.00,North,-999,-999.0,2.0,45,0.00,,,0.00,meteohub,2013-01-15 06:14:00,
2013-01-14 23:19:00,-1.3,-17.5,-100.00,North,-999,-999.0,2.0,45,0.00,,,0.00,meteohub,2013-01-15 06:19:00,
2013-01-14 23:24:00,-1.3,-17.5,-100.00,North,-999,-999.0,2.0,45,0.00,,,0.00,meteohub,2013-01-15 06:24:00,
2013-01-14 23:29:00,-0.9,-17.1,-100.00,ESE,112,2.0,-999.0,45,0.00,,,0.00,meteohub,2013-01-15 06:29:00,
2013-01-14 23:35:00,-1.1,-17.3,-100.00,NNE,22,1.0,-999.0,45,0.00,,,0.00,meteohub,2013-01-15 06:35:00,
2013-01-14 23:40:00,-1.1,-17.3,-100.00,North,-999,-999.0,2.0,45,0.00,,,0.00,meteohub,2013-01-15 06:40:00,
2013-01-14 23:45:00,-0.8,-17.0,-100.00,NNW,337,1.0,2.0,45,0.00,,,0.00,meteohub,2013-01-15 06:45:00,
2013-01-14 23:50:00,-0.9,-17.1,-100.00,North,-999,-999.0,2.0,45,0.00,,,0.00,meteohub,2013-01-15 06:50:00,
2013-01-14 23:55:00,-1.1,-17.3,-100.00,ENE,67,2.0,2.0,45,0.00,,,0.00,meteohub,2013-01-15 06:55:00,